sensor_id;sensor_type;location;lat;lon;timestamp;pressure;altitude;pressure_sealevel;temperature;humidity
48358;BME280;41929;51.478;-0.026;2022-11-21T00:01:23;77524.75;;;-143.00;100.00
48358;BME280;41929;51.478;-0.026;2022-11-21T00:03:49;77516.88;;;-143.00;100.00
48358;BME280;41929;51.478;-0.026;2022-11-21T00:06:16;77508.97;;;-143.00;100.00
48358;BME280;41929;51.478;-0.026;2022-11-21T00:08:42;77501.09;;;-143.00;100.00
48358;BME280;41929;51.478;-0.026;2022-11-21T00:11:07;77505.03;;;-143.00;100.00
48358;BME280;41929;51.478;-0.026;2022-11-21T00:13:32;77497.13;;;-143.00;100.00
48358;BME280;41929;51.478;-0.026;2022-11-21T00:16:03;77485.31;;;-143.00;100.00
48358;BME280;41929;51.478;-0.026;2022-11-21T00:18:28;77483.31;;;-143.00;100.00
48358;BME280;41929;51.478;-0.026;2022-11-21T00:20:53;77479.38;;;-143.00;100.00
48358;BME280;41929;51.478;-0.026;2022-11-21T00:23:19;77495.16;;;-143.00;100.00
48358;BME280;41929;51.478;-0.026;2022-11-21T00:25:44;77495.16;;;-143.00;100.00
48358;BME280;41929;51.478;-0.026;2022-11-21T00:28:09;77495.16;;;-143.00;100.00
48358;BME280;41929;51.478;-0.026;2022-11-21T00:30:35;77507.00;;;-143.00;100.00
48358;BME280;41929;51.478;-0.026;2022-11-21T00:33:00;77522.78;;;-143.00;100.00
48358;BME280;41929;51.478;-0.026;2022-11-21T00:35:26;77534.63;;;-143.00;100.00
48358;BME280;41929;51.478;-0.026;2022-11-21T00:37:51;77550.41;;;-143.00;100.00
48358;BME280;41929;51.478;-0.026;2022-11-21T00:40:17;77548.44;;;-143.00;100.00
48358;BME280;41929;51.478;-0.026;2022-11-21T00:42:43;77524.75;;;-143.00;100.00
48358;BME280;41929;51.478;-0.026;2022-11-21T00:45:09;77518.84;;;-143.00;100.00
48358;BME280;41929;51.478;-0.026;2022-11-21T00:47:34;77520.81;;;-143.00;100.00
48358;BME280;41929;51.478;-0.026;2022-11-21T00:49:59;77514.91;;;-143.00;100.00
48358;BME280;41929;51.478;-0.026;2022-11-21T00:52:25;77512.91;;;-143.00;100.00
48358;BME280;41929;51.478;-0.026;2022-11-21T00:54:50;77516.88;;;-143.00;100.00
48358;BME280;41929;51.478;-0.026;2022-11-21T00:57:15;77507.00;;;-143.00;100.00
48358;BME280;41929;51.478;-0.026;2022-11-21T00:59:41;77510.94;;;-143.00;100.00
48358;BME280;41929;51.478;-0.026;2022-11-21T01:02:06;77505.03;;;-143.00;100.00
48358;BME280;41929;51.478;-0.026;2022-11-21T01:04:32;77508.97;;;-143.00;100.00
48358;BME280;41929;51.478;-0.026;2022-11-21T01:06:58;77501.09;;;-143.00;100.00
48358;BME280;41929;51.478;-0.026;2022-11-21T01:09:24;77497.13;;;-143.00;100.00
48358;BME280;41929;51.478;-0.026;2022-11-21T01:11:50;77489.25;;;-143.00;100.00
48358;BME280;41929;51.478;-0.026;2022-11-21T01:14:15;77479.38;;;-143.00;100.00
48358;BME280;41929;51.478;-0.026;2022-11-21T01:16:41;77471.50;;;-143.00;100.00
48358;BME280;41929;51.478;-0.026;2022-11-21T01:19:06;77477.41;;;-143.00;100.00
48358;BME280;41929;51.478;-0.026;2022-11-21T01:21:32;77475.44;;;-143.00;100.00
48358;BME280;41929;51.478;-0.026;2022-11-21T01:23:59;77469.50;;;-143.00;100.00
48358;BME280;41929;51.478;-0.026;2022-11-21T01:26:26;77453.72;;;-143.00;100.00
48358;BME280;41929;51.478;-0.026;2022-11-21T01:28:52;77445.84;;;-143.00;100.00
48358;BME280;41929;51.478;-0.026;2022-11-21T01:31:24;77449.78;;;-143.00;100.00
48358;BME280;41929;51.478;-0.026;2022-11-21T01:33:49;77443.88;;;-143.00;100.00
48358;BME280;41929;51.478;-0.026;2022-11-21T01:36:17;77447.81;;;-143.00;100.00
48358;BME280;41929;51.478;-0.026;2022-11-21T01:38:45;77445.84;;;-143.00;100.00
48358;BME280;41929;51.478;-0.026;2022-11-21T01:41:12;77430.06;;;-143.00;100.00
48358;BME280;41929;51.478;-0.026;2022-11-21T01:43:39;77416.25;;;-143.00;100.00
48358;BME280;41929;51.478;-0.026;2022-11-21T01:46:11;77400.47;;;-143.00;100.00
48358;BME280;41929;51.478;-0.026;2022-11-21T01:48:47;77386.66;;;-143.00;100.00
48358;BME280;41929;51.478;-0.026;2022-11-21T01:51:33;77378.75;;;-143.00;100.00
48358;BME280;41929;51.478;-0.026;2022-11-21T01:54:35;77404.41;;;-143.00;100.00
48358;BME280;41929;51.478;-0.026;2022-11-21T01:57:08;77402.44;;;-143.00;100.00
48358;BME280;41929;51.478;-0.026;2022-11-21T02:02:07;77392.56;;;-143.00;100.00
48358;BME280;41929;51.478;-0.026;2022-11-21T02:04:35;77408.34;;;-143.00;100.00
48358;BME280;41929;51.478;-0.026;2022-11-21T02:07:03;77412.31;;;-143.00;100.00
48358;BME280;41929;51.478;-0.026;2022-11-21T02:09:32;77418.22;;;-143.00;100.00
48358;BME280;41929;51.478;-0.026;2022-11-21T02:12:02;77426.13;;;-143.00;100.00
48358;BME280;41929;51.478;-0.026;2022-11-21T02:14:30;77430.06;;;-143.00;100.00
48358;BME280;41929;51.478;-0.026;2022-11-21T02:16:59;77430.06;;;-143.00;100.00
48358;BME280;41929;51.478;-0.026;2022-11-21T02:19:51;77432.03;;;-143.00;100.00
48358;BME280;41929;51.478;-0.026;2022-11-21T02:22:41;77447.81;;;-143.00;100.00
48358;BME280;41929;51.478;-0.026;2022-11-21T02:25:25;77445.84;;;-143.00;100.00
48358;BME280;41929;51.478;-0.026;2022-11-21T02:27:55;77439.91;;;-143.00;100.00
48358;BME280;41929;51.478;-0.026;2022-11-21T02:30:22;77443.88;;;-143.00;100.00
48358;BME280;41929;51.478;-0.026;2022-11-21T02:32:47;77430.06;;;-143.00;100.00
48358;BME280;41929;51.478;-0.026;2022-11-21T02:35:15;77422.16;;;-143.00;100.00
48358;BME280;41929;51.478;-0.026;2022-11-21T02:37:41;77426.13;;;-143.00;100.00
48358;BME280;41929;51.478;-0.026;2022-11-21T02:40:17;77416.25;;;-143.00;100.00
48358;BME280;41929;51.478;-0.026;2022-11-21T02:43:00;77416.25;;;-143.00;100.00
48358;BME280;41929;51.478;-0.026;2022-11-21T02:45:31;77396.53;;;-143.00;100.00
48358;BME280;41929;51.478;-0.026;2022-11-21T02:47:57;77396.53;;;-143.00;100.00
48358;BME280;41929;51.478;-0.026;2022-11-21T02:50:31;77412.31;;;-143.00;100.00
48358;BME280;41929;51.478;-0.026;2022-11-21T02:52:57;77396.53;;;-143.00;100.00
48358;BME280;41929;51.478;-0.026;2022-11-21T02:55:26;77404.41;;;-143.00;100.00
48358;BME280;41929;51.478;-0.026;2022-11-21T02:57:51;77412.31;;;-143.00;100.00
48358;BME280;41929;51.478;-0.026;2022-11-21T03:00:18;77412.31;;;-143.00;100.00
48358;BME280;41929;51.478;-0.026;2022-11-21T03:02:43;77396.53;;;-143.00;100.00
48358;BME280;41929;51.478;-0.026;2022-11-21T03:05:10;77408.34;;;-143.00;100.00
48358;BME280;41929;51.478;-0.026;2022-11-21T03:07:36;77406.38;;;-143.00;100.00
48358;BME280;41929;51.478;-0.026;2022-11-21T03:10:02;77414.28;;;-143.00;100.00
48358;BME280;41929;51.478;-0.026;2022-11-21T03:12:27;77408.34;;;-143.00;100.00
48358;BME280;41929;51.478;-0.026;2022-11-21T03:14:52;77406.38;;;-143.00;100.00
48358;BME280;41929;51.478;-0.026;2022-11-21T03:17:18;77394.53;;;-143.00;100.00
48358;BME280;41929;51.478;-0.026;2022-11-21T03:19:43;77406.38;;;-143.00;100.00
48358;BME280;41929;51.478;-0.026;2022-11-21T03:22:08;77420.19;;;-143.00;100.00
48358;BME280;41929;51.478;-0.026;2022-11-21T03:24:34;77418.22;;;-143.00;100.00
48358;BME280;41929;51.478;-0.026;2022-11-21T03:26:59;77428.09;;;-143.00;100.00
48358;BME280;41929;51.478;-0.026;2022-11-21T03:29:25;77424.13;;;-143.00;100.00
48358;BME280;41929;51.478;-0.026;2022-11-21T03:31:50;77422.16;;;-143.00;100.00
48358;BME280;41929;51.478;-0.026;2022-11-21T03:34:15;77414.28;;;-143.00;100.00
48358;BME280;41929;51.478;-0.026;2022-11-21T03:36:41;77408.34;;;-143.00;100.00
48358;BME280;41929;51.478;-0.026;2022-11-21T03:39:06;77416.25;;;-143.00;100.00
48358;BME280;41929;51.478;-0.026;2022-11-21T03:41:32;77422.16;;;-143.00;100.00
48358;BME280;41929;51.478;-0.026;2022-11-21T03:43:59;77432.03;;;-143.00;100.00
48358;BME280;41929;51.478;-0.026;2022-11-21T03:46:26;77435.97;;;-143.00;100.00
48358;BME280;41929;51.478;-0.026;2022-11-21T03:48:51;77424.13;;;-143.00;100.00
48358;BME280;41929;51.478;-0.026;2022-11-21T03:51:17;77420.19;;;-143.00;100.00
48358;BME280;41929;51.478;-0.026;2022-11-21T03:53:42;77422.16;;;-143.00;100.00
48358;BME280;41929;51.478;-0.026;2022-11-21T03:56:08;77396.53;;;-143.00;100.00
48358;BME280;41929;51.478;-0.026;2022-11-21T03:58:33;77382.72;;;-143.00;100.00
48358;BME280;41929;51.478;-0.026;2022-11-21T04:00:58;77364.94;;;-143.00;100.00
48358;BME280;41929;51.478;-0.026;2022-11-21T04:03:24;77362.97;;;-143.00;100.00
48358;BME280;41929;51.478;-0.026;2022-11-21T04:05:49;77347.19;;;-143.00;100.00
48358;BME280;41929;51.478;-0.026;2022-11-21T04:08:14;77347.19;;;-143.00;100.00
48358;BME280;41929;51.478;-0.026;2022-11-21T04:10:46;77355.09;;;-143.00;100.00
48358;BME280;41929;51.478;-0.026;2022-11-21T04:13:12;77353.13;;;-143.00;100.00
48358;BME280;41929;51.478;-0.026;2022-11-21T04:15:37;77347.19;;;-143.00;100.00
48358;BME280;41929;51.478;-0.026;2022-11-21T04:18:03;77349.16;;;-143.00;100.00
48358;BME280;41929;51.478;-0.026;2022-11-21T04:20:28;77353.13;;;-143.00;100.00
48358;BME280;41929;51.478;-0.026;2022-11-21T04:22:53;77364.94;;;-143.00;100.00
48358;BME280;41929;51.478;-0.026;2022-11-21T04:25:19;77372.84;;;-143.00;100.00
48358;BME280;41929;51.478;-0.026;2022-11-21T04:27:44;77345.22;;;-143.00;100.00
48358;BME280;41929;51.478;-0.026;2022-11-21T04:30:10;77343.25;;;-143.00;100.00
48358;BME280;41929;51.478;-0.026;2022-11-21T04:32:35;77327.47;;;-143.00;100.00
48358;BME280;41929;51.478;-0.026;2022-11-21T04:35:01;77309.72;;;-143.00;100.00
48358;BME280;41929;51.478;-0.026;2022-11-21T04:37:26;77278.16;;;-143.00;100.00
48358;BME280;41929;51.478;-0.026;2022-11-21T04:39:52;77286.03;;;-143.00;100.00
48358;BME280;41929;51.478;-0.026;2022-11-21T04:42:19;77293.94;;;-143.00;100.00
48358;BME280;41929;51.478;-0.026;2022-11-21T04:44:44;77297.88;;;-143.00;100.00
48358;BME280;41929;51.478;-0.026;2022-11-21T04:47:09;77286.03;;;-143.00;100.00
48358;BME280;41929;51.478;-0.026;2022-11-21T04:49:35;77280.13;;;-143.00;100.00
48358;BME280;41929;51.478;-0.026;2022-11-21T04:52:00;77291.94;;;-143.00;100.00
48358;BME280;41929;51.478;-0.026;2022-11-21T04:54:25;77270.25;;;-143.00;100.00
48358;BME280;41929;51.478;-0.026;2022-11-21T04:56:51;77262.38;;;-143.00;100.00
48358;BME280;41929;51.478;-0.026;2022-11-21T04:59:16;77282.09;;;-143.00;100.00
48358;BME280;41929;51.478;-0.026;2022-11-21T05:01:41;77297.88;;;-143.00;100.00
48358;BME280;41929;51.478;-0.026;2022-11-21T05:04:07;77293.94;;;-143.00;100.00
48358;BME280;41929;51.478;-0.026;2022-11-21T05:06:32;77311.69;;;-143.00;100.00
48358;BME280;41929;51.478;-0.026;2022-11-21T05:08:57;77297.88;;;-143.00;100.00
48358;BME280;41929;51.478;-0.026;2022-11-21T05:11:23;77288.00;;;-143.00;100.00
48358;BME280;41929;51.478;-0.026;2022-11-21T05:14:06;77270.25;;;-143.00;100.00
48358;BME280;41929;51.478;-0.026;2022-11-21T05:16:32;77248.56;;;-143.00;100.00
48358;BME280;41929;51.478;-0.026;2022-11-21T05:18:58;77246.56;;;-143.00;100.00
48358;BME280;41929;51.478;-0.026;2022-11-21T05:21:23;77246.56;;;-143.00;100.00
48358;BME280;41929;51.478;-0.026;2022-11-21T05:23:48;77232.78;;;-143.00;100.00
48358;BME280;41929;51.478;-0.026;2022-11-21T05:26:14;77218.97;;;-143.00;100.00
48358;BME280;41929;51.478;-0.026;2022-11-21T05:28:39;77211.06;;;-143.00;100.00
48358;BME280;41929;51.478;-0.026;2022-11-21T05:31:04;77195.28;;;-143.00;100.00
48358;BME280;41929;51.478;-0.026;2022-11-21T05:33:30;77185.41;;;-143.00;100.00
48358;BME280;41929;51.478;-0.026;2022-11-21T05:35:55;77183.44;;;-143.00;100.00
48358;BME280;41929;51.478;-0.026;2022-11-21T05:38:20;77171.59;;;-143.00;100.00
48358;BME280;41929;51.478;-0.026;2022-11-21T05:40:46;77169.63;;;-143.00;100.00
48358;BME280;41929;51.478;-0.026;2022-11-21T05:43:11;77161.75;;;-143.00;100.00
48358;BME280;41929;51.478;-0.026;2022-11-21T05:45:55;77157.81;;;-143.00;100.00
48358;BME280;41929;51.478;-0.026;2022-11-21T05:48:20;77145.97;;;-143.00;100.00
48358;BME280;41929;51.478;-0.026;2022-11-21T05:50:47;77144.00;;;-143.00;100.00
48358;BME280;41929;51.478;-0.026;2022-11-21T05:53:13;77142.03;;;-143.00;100.00
48358;BME280;41929;51.478;-0.026;2022-11-21T05:55:39;77128.22;;;-143.00;100.00
48358;BME280;41929;51.478;-0.026;2022-11-21T05:58:04;77124.25;;;-143.00;100.00
48358;BME280;41929;51.478;-0.026;2022-11-21T06:00:30;77118.34;;;-143.00;100.00
48358;BME280;41929;51.478;-0.026;2022-11-21T06:02:55;77116.38;;;-143.00;100.00
48358;BME280;41929;51.478;-0.026;2022-11-21T06:05:39;77112.44;;;-143.00;100.00
48358;BME280;41929;51.478;-0.026;2022-11-21T06:08:04;77096.66;;;-143.00;100.00
48358;BME280;41929;51.478;-0.026;2022-11-21T06:10:30;77086.78;;;-143.00;100.00
48358;BME280;41929;51.478;-0.026;2022-11-21T06:12:58;77074.94;;;-143.00;100.00
48358;BME280;41929;51.478;-0.026;2022-11-21T06:15:24;77072.97;;;-143.00;100.00
48358;BME280;41929;51.478;-0.026;2022-11-21T06:17:49;77069.03;;;-143.00;100.00
48358;BME280;41929;51.478;-0.026;2022-11-21T06:20:15;77061.13;;;-143.00;100.00
48358;BME280;41929;51.478;-0.026;2022-11-21T06:22:40;77053.25;;;-143.00;100.00
48358;BME280;41929;51.478;-0.026;2022-11-21T06:25:05;77049.31;;;-143.00;100.00
48358;BME280;41929;51.478;-0.026;2022-11-21T06:27:31;77047.31;;;-143.00;100.00
48358;BME280;41929;51.478;-0.026;2022-11-21T06:29:56;77041.41;;;-143.00;100.00
48358;BME280;41929;51.478;-0.026;2022-11-21T06:32:21;77033.50;;;-143.00;100.00
48358;BME280;41929;51.478;-0.026;2022-11-21T06:34:47;77023.66;;;-143.00;100.00
48358;BME280;41929;51.478;-0.026;2022-11-21T06:37:12;77021.69;;;-143.00;100.00
48358;BME280;41929;51.478;-0.026;2022-11-21T06:39:37;77021.69;;;-143.00;100.00
48358;BME280;41929;51.478;-0.026;2022-11-21T06:42:03;77015.75;;;-143.00;100.00
48358;BME280;41929;51.478;-0.026;2022-11-21T06:44:28;77017.72;;;-143.00;100.00
48358;BME280;41929;51.478;-0.026;2022-11-21T06:46:53;77005.91;;;-143.00;100.00
48358;BME280;41929;51.478;-0.026;2022-11-21T06:49:19;76994.06;;;-143.00;100.00
48358;BME280;41929;51.478;-0.026;2022-11-21T06:51:46;76970.38;;;-143.00;100.00
48358;BME280;41929;51.478;-0.026;2022-11-21T06:54:12;76952.63;;;-143.00;100.00
48358;BME280;41929;51.478;-0.026;2022-11-21T06:56:37;76936.84;;;-143.00;100.00
48358;BME280;41929;51.478;-0.026;2022-11-21T06:59:03;76921.06;;;-143.00;100.00
48358;BME280;41929;51.478;-0.026;2022-11-21T07:01:28;76905.28;;;-143.00;100.00
48358;BME280;41929;51.478;-0.026;2022-11-21T07:03:54;76903.31;;;-143.00;100.00
48358;BME280;41929;51.478;-0.026;2022-11-21T07:06:20;76893.47;;;-143.00;100.00
48358;BME280;41929;51.478;-0.026;2022-11-21T07:08:45;76891.47;;;-143.00;100.00
48358;BME280;41929;51.478;-0.026;2022-11-21T07:11:12;76875.69;;;-143.00;100.00
48358;BME280;41929;51.478;-0.026;2022-11-21T07:13:38;76869.78;;;-143.00;100.00
48358;BME280;41929;51.478;-0.026;2022-11-21T07:16:08;76857.94;;;-143.00;100.00
48358;BME280;41929;51.478;-0.026;2022-11-21T07:18:34;76859.91;;;-143.00;100.00
48358;BME280;41929;51.478;-0.026;2022-11-21T07:21:02;76834.28;;;-143.00;100.00
48358;BME280;41929;51.478;-0.026;2022-11-21T07:23:29;76830.31;;;-143.00;100.00
48358;BME280;41929;51.478;-0.026;2022-11-21T07:25:58;76818.50;;;-143.00;100.00
48358;BME280;41929;51.478;-0.026;2022-11-21T07:28:24;76824.41;;;-143.00;100.00
48358;BME280;41929;51.478;-0.026;2022-11-21T07:30:49;76828.34;;;-143.00;100.00
48358;BME280;41929;51.478;-0.026;2022-11-21T07:33:15;76822.44;;;-143.00;100.00
48358;BME280;41929;51.478;-0.026;2022-11-21T07:35:40;76814.53;;;-143.00;100.00
48358;BME280;41929;51.478;-0.026;2022-11-21T07:38:07;76798.78;;;-143.00;100.00
48358;BME280;41929;51.478;-0.026;2022-11-21T07:40:32;76796.78;;;-143.00;100.00
48358;BME280;41929;51.478;-0.026;2022-11-21T07:43:03;76777.06;;;-143.00;100.00
48358;BME280;41929;51.478;-0.026;2022-11-21T07:45:29;76784.97;;;-143.00;100.00
48358;BME280;41929;51.478;-0.026;2022-11-21T07:47:58;76781.00;;;-143.00;100.00
48358;BME280;41929;51.478;-0.026;2022-11-21T07:50:24;76777.06;;;-143.00;100.00
48358;BME280;41929;51.478;-0.026;2022-11-21T07:52:49;76773.13;;;-143.00;100.00
48358;BME280;41929;51.478;-0.026;2022-11-21T07:55:15;76763.25;;;-143.00;100.00
48358;BME280;41929;51.478;-0.026;2022-11-21T07:57:40;76749.44;;;-143.00;100.00
48358;BME280;41929;51.478;-0.026;2022-11-21T08:00:06;76757.34;;;-143.00;100.00
48358;BME280;41929;51.478;-0.026;2022-11-21T08:02:32;76743.53;;;-143.00;100.00
48358;BME280;41929;51.478;-0.026;2022-11-21T08:04:57;76733.66;;;-143.00;100.00
48358;BME280;41929;51.478;-0.026;2022-11-21T08:07:22;76715.91;;;-143.00;100.00
48358;BME280;41929;51.478;-0.026;2022-11-21T08:09:49;76706.06;;;-143.00;100.00
48358;BME280;41929;51.478;-0.026;2022-11-21T08:12:15;76710.00;;;-143.00;100.00
48358;BME280;41929;51.478;-0.026;2022-11-21T08:14:41;76690.28;;;-143.00;100.00
48358;BME280;41929;51.478;-0.026;2022-11-21T08:17:06;76670.56;;;-143.00;100.00
48358;BME280;41929;51.478;-0.026;2022-11-21T08:19:32;76654.75;;;-143.00;100.00
48358;BME280;41929;51.478;-0.026;2022-11-21T08:21:58;76639.00;;;-143.00;100.00
48358;BME280;41929;51.478;-0.026;2022-11-21T08:24:23;76629.13;;;-143.00;100.00
48358;BME280;41929;51.478;-0.026;2022-11-21T08:26:49;76605.47;;;-143.00;100.00
48358;BME280;41929;51.478;-0.026;2022-11-21T08:29:14;76603.47;;;-143.00;100.00
48358;BME280;41929;51.478;-0.026;2022-11-21T08:31:40;76591.66;;;-143.00;100.00
48358;BME280;41929;51.478;-0.026;2022-11-21T08:34:06;76583.75;;;-143.00;100.00
48358;BME280;41929;51.478;-0.026;2022-11-21T08:36:32;76579.81;;;-143.00;100.00
48358;BME280;41929;51.478;-0.026;2022-11-21T08:38:58;76569.94;;;-143.00;100.00
48358;BME280;41929;51.478;-0.026;2022-11-21T08:41:23;76544.31;;;-143.00;100.00
48358;BME280;41929;51.478;-0.026;2022-11-21T08:44:07;76530.50;;;-143.00;100.00
48358;BME280;41929;51.478;-0.026;2022-11-21T08:46:33;76532.47;;;-143.00;100.00
48358;BME280;41929;51.478;-0.026;2022-11-21T08:49:02;76516.69;;;-143.00;100.00
48358;BME280;41929;51.478;-0.026;2022-11-21T08:51:27;76510.78;;;-143.00;100.00
48358;BME280;41929;51.478;-0.026;2022-11-21T08:53:53;76495.00;;;-143.00;100.00
48358;BME280;41929;51.478;-0.026;2022-11-21T08:56:18;76493.03;;;-143.00;100.00
48358;BME280;41929;51.478;-0.026;2022-11-21T08:58:43;76483.16;;;-143.00;100.00
48358;BME280;41929;51.478;-0.026;2022-11-21T09:01:09;76477.25;;;-143.00;100.00
48358;BME280;41929;51.478;-0.026;2022-11-21T09:03:34;76477.25;;;-143.00;100.00
48358;BME280;41929;51.478;-0.026;2022-11-21T09:06:00;76469.34;;;-143.00;100.00
48358;BME280;41929;51.478;-0.026;2022-11-21T09:08:25;76467.38;;;-143.00;100.00
48358;BME280;41929;51.478;-0.026;2022-11-21T09:10:51;76459.50;;;-143.00;100.00
48358;BME280;41929;51.478;-0.026;2022-11-21T09:13:16;76449.63;;;-143.00;100.00
48358;BME280;41929;51.478;-0.026;2022-11-21T09:15:42;76437.78;;;-143.00;100.00
48358;BME280;41929;51.478;-0.026;2022-11-21T09:18:26;76416.09;;;-143.00;100.00
48358;BME280;41929;51.478;-0.026;2022-11-21T09:20:51;76404.25;;;-143.00;100.00
48358;BME280;41929;51.478;-0.026;2022-11-21T09:23:16;76386.50;;;-143.00;100.00
48358;BME280;41929;51.478;-0.026;2022-11-21T09:25:42;76378.63;;;-143.00;100.00
48358;BME280;41929;51.478;-0.026;2022-11-21T09:28:11;76366.78;;;-143.00;100.00
48358;BME280;41929;51.478;-0.026;2022-11-21T09:30:37;76360.88;;;-143.00;100.00
48358;BME280;41929;51.478;-0.026;2022-11-21T09:33:09;76349.03;;;-143.00;100.00
48358;BME280;41929;51.478;-0.026;2022-11-21T09:35:34;76339.16;;;-143.00;100.00
48358;BME280;41929;51.478;-0.026;2022-11-21T09:38:00;76313.53;;;-143.00;100.00
48358;BME280;41929;51.478;-0.026;2022-11-21T09:40:28;76293.81;;;-143.00;100.00
48358;BME280;41929;51.478;-0.026;2022-11-21T09:43:20;76287.88;;;-143.00;100.00
48358;BME280;41929;51.478;-0.026;2022-11-21T09:45:46;76281.97;;;-143.00;100.00
48358;BME280;41929;51.478;-0.026;2022-11-21T09:48:30;76274.09;;;-143.00;100.00
48358;BME280;41929;51.478;-0.026;2022-11-21T09:51:05;76268.16;;;-143.00;100.00
48358;BME280;41929;51.478;-0.026;2022-11-21T09:53:52;76264.22;;;-143.00;100.00
48358;BME280;41929;51.478;-0.026;2022-11-21T09:56:21;76256.34;;;-143.00;100.00
48358;BME280;41929;51.478;-0.026;2022-11-21T09:58:48;76260.28;;;-143.00;100.00
48358;BME280;41929;51.478;-0.026;2022-11-21T10:01:15;76244.50;;;-143.00;100.00
48358;BME280;41929;51.478;-0.026;2022-11-21T10:03:46;76240.56;;;-143.00;100.00
48358;BME280;41929;51.478;-0.026;2022-11-21T10:06:25;76232.66;;;-143.00;100.00
48358;BME280;41929;51.478;-0.026;2022-11-21T10:11:47;76207.03;;;-143.00;100.00
48358;BME280;41929;51.478;-0.026;2022-11-21T10:25:13;76197.16;;;-143.00;100.00
48358;BME280;41929;51.478;-0.026;2022-11-21T10:27:54;76195.19;;;-143.00;100.00
48358;BME280;41929;51.478;-0.026;2022-11-21T10:30:21;76183.34;;;-143.00;100.00
48358;BME280;41929;51.478;-0.026;2022-11-21T10:32:52;76159.69;;;-143.00;100.00
48358;BME280;41929;51.478;-0.026;2022-11-21T10:35:25;76153.78;;;-143.00;100.00
48358;BME280;41929;51.478;-0.026;2022-11-21T10:37:57;76143.91;;;-143.00;100.00
48358;BME280;41929;51.478;-0.026;2022-11-21T10:40:39;76128.13;;;-143.00;100.00
48358;BME280;41929;51.478;-0.026;2022-11-21T10:46:13;76116.28;;;-143.00;100.00
48358;BME280;41929;51.478;-0.026;2022-11-21T10:48:39;76104.47;;;-143.00;100.00
48358;BME280;41929;51.478;-0.026;2022-11-21T10:51:09;76094.59;;;-143.00;100.00
48358;BME280;41929;51.478;-0.026;2022-11-21T10:53:39;76082.78;;;-143.00;100.00
48358;BME280;41929;51.478;-0.026;2022-11-21T10:56:25;76067.00;;;-143.00;100.00
48358;BME280;41929;51.478;-0.026;2022-11-21T10:58:53;76057.13;;;-143.00;100.00
48358;BME280;41929;51.478;-0.026;2022-11-21T11:04:05;76031.50;;;-143.00;100.00
48358;BME280;41929;51.478;-0.026;2022-11-21T11:06:31;76027.53;;;-143.00;100.00
48358;BME280;41929;51.478;-0.026;2022-11-21T11:08:57;76011.75;;;-143.00;100.00
48358;BME280;41929;51.478;-0.026;2022-11-21T11:11:22;75994.00;;;-143.00;100.00
48358;BME280;41929;51.478;-0.026;2022-11-21T11:13:58;75982.19;;;-143.00;100.00
48358;BME280;41929;51.478;-0.026;2022-11-21T11:16:25;75974.28;;;-143.00;100.00
48358;BME280;41929;51.478;-0.026;2022-11-21T11:21:22;75958.50;;;-143.00;100.00
48358;BME280;41929;51.478;-0.026;2022-11-21T11:23:50;75952.59;;;-143.00;100.00
48358;BME280;41929;51.478;-0.026;2022-11-21T11:26:30;75944.72;;;-143.00;100.00
48358;BME280;41929;51.478;-0.026;2022-11-21T11:29:28;75917.09;;;-143.00;100.00
48358;BME280;41929;51.478;-0.026;2022-11-21T11:32:01;75913.16;;;-143.00;100.00
48358;BME280;41929;51.478;-0.026;2022-11-21T11:37:19;75901.31;;;-143.00;100.00
48358;BME280;41929;51.478;-0.026;2022-11-21T11:48:24;75834.28;;;-143.00;100.00
48358;BME280;41929;51.478;-0.026;2022-11-21T11:50:51;75828.34;;;-143.00;100.00
48358;BME280;41929;51.478;-0.026;2022-11-21T11:53:25;75810.59;;;-143.00;100.00
48358;BME280;41929;51.478;-0.026;2022-11-21T11:58:45;75781.03;;;-143.00;100.00
48358;BME280;41929;51.478;-0.026;2022-11-21T12:04:04;75751.44;;;-143.00;100.00
48358;BME280;41929;51.478;-0.026;2022-11-21T12:10:12;75727.78;;;-143.00;100.00
48358;BME280;41929;51.478;-0.026;2022-11-21T12:12:41;75713.97;;;-143.00;100.00
48358;BME280;41929;51.478;-0.026;2022-11-21T12:15:20;75708.06;;;-143.00;100.00
48358;BME280;41929;51.478;-0.026;2022-11-21T12:21:08;75698.19;;;-143.00;100.00
48358;BME280;41929;51.478;-0.026;2022-11-21T12:45:45;75591.69;;;-143.00;100.00
48358;BME280;41929;51.478;-0.026;2022-11-21T12:52:00;75585.78;;;-143.00;100.00
48358;BME280;41929;51.478;-0.026;2022-11-21T12:57:45;75570.00;;;-143.00;100.00
48358;BME280;41929;51.478;-0.026;2022-11-21T13:00:31;75573.94;;;-143.00;100.00
48358;BME280;41929;51.478;-0.026;2022-11-21T13:05:29;75568.03;;;-143.00;100.00
48358;BME280;41929;51.478;-0.026;2022-11-21T13:08:35;75562.13;;;-143.00;100.00
48358;BME280;41929;51.478;-0.026;2022-11-21T13:11:26;75554.22;;;-143.00;100.00
48358;BME280;41929;51.478;-0.026;2022-11-21T13:37:59;75605.50;;;-143.00;100.00
48358;BME280;41929;51.478;-0.026;2022-11-21T13:45:45;75613.41;;;-143.00;100.00
48358;BME280;41929;51.478;-0.026;2022-11-21T13:51:14;75611.41;;;-143.00;100.00
48358;BME280;41929;51.478;-0.026;2022-11-21T14:07:34;75591.69;;;-143.00;100.00
48358;BME280;41929;51.478;-0.026;2022-11-21T14:10:03;75597.63;;;-143.00;100.00
48358;BME280;41929;51.478;-0.026;2022-11-21T14:12:38;75617.34;;;-143.00;100.00
48358;BME280;41929;51.478;-0.026;2022-11-21T14:17:46;75593.69;;;-143.00;100.00
48358;BME280;41929;51.478;-0.026;2022-11-21T14:20:33;75585.78;;;-143.00;100.00
48358;BME280;41929;51.478;-0.026;2022-11-21T14:23:02;75581.84;;;-143.00;100.00
48358;BME280;41929;51.478;-0.026;2022-11-21T14:25:34;75583.81;;;-143.00;100.00
48358;BME280;41929;51.478;-0.026;2022-11-21T14:28:01;75573.94;;;-143.00;100.00
48358;BME280;41929;51.478;-0.026;2022-11-21T14:33:37;75570.00;;;-143.00;100.00
48358;BME280;41929;51.478;-0.026;2022-11-21T14:38:48;75546.34;;;-143.00;100.00
48358;BME280;41929;51.478;-0.026;2022-11-21T14:46:37;75518.75;;;-143.00;100.00